createdAt,value
2017-07-27T00:00:10.599Z,13.17
2017-07-27T00:02:38.902Z,13.57
2017-07-27T00:05:07.241Z,18.23
2017-07-27T00:07:36.342Z,13.23
2017-07-27T00:10:04.676Z,14.47
2017-07-27T00:12:32.963Z,14.87
2017-07-27T00:15:01.471Z,13.27
2017-07-27T00:17:29.854Z,13.93
2017-07-27T00:19:58.141Z,15.20
2017-07-27T00:22:26.710Z,15.70
2017-07-27T00:24:55.773Z,15.87
2017-07-27T00:27:24.282Z,16.07
2017-07-27T00:29:53.391Z,17.90
2017-07-27T00:32:21.751Z,15.77
2017-07-27T00:34:50.838Z,17.67
2017-07-27T00:37:19.534Z,17.17
2017-07-27T00:39:47.912Z,17.60
2017-07-27T00:42:16.240Z,16.77
2017-07-27T00:44:44.549Z,17.73
2017-07-27T00:47:12.863Z,18.47
2017-07-27T00:49:41.202Z,16.50
2017-07-27T00:52:09.502Z,17.47
2017-07-27T00:54:37.805Z,16.13
2017-07-27T00:57:06.110Z,19.07
2017-07-27T00:59:34.731Z,21.00
2017-07-27T01:02:03.799Z,18.57
2017-07-27T01:04:32.220Z,17.77
2017-07-27T01:07:00.518Z,21.40
2017-07-27T01:09:28.800Z,19.13
2017-07-27T01:11:57.118Z,18.30
2017-07-27T01:14:25.402Z,17.17
2017-07-27T01:16:54.491Z,18.40
2017-07-27T01:19:23.561Z,19.93
2017-07-27T01:21:51.894Z,19.30
2017-07-27T01:24:20.197Z,17.70
2017-07-27T01:26:48.546Z,18.20
2017-07-27T01:29:17.593Z,18.13
2017-07-27T01:31:46.710Z,18.73
2017-07-27T01:34:15.787Z,18.20
2017-07-27T01:36:44.250Z,18.47
2017-07-27T01:39:12.542Z,16.00
2017-07-27T01:41:41.059Z,19.43
2017-07-27T01:44:09.386Z,17.23
2017-07-27T01:46:37.714Z,18.80
2017-07-27T01:49:06.094Z,18.23
2017-07-27T01:51:35.155Z,17.50
2017-07-27T01:54:03.575Z,18.63
2017-07-27T01:56:31.888Z,19.17
2017-07-27T01:59:00.615Z,18.33
2017-07-27T02:01:28.946Z,18.13
2017-07-27T02:03:57.260Z,17.70
2017-07-27T02:06:26.370Z,17.77
2017-07-27T02:08:55.433Z,18.33
2017-07-27T02:11:23.773Z,18.50
2017-07-27T02:13:52.077Z,20.47
2017-07-27T02:16:20.385Z,20.20
2017-07-27T02:18:49.454Z,19.10
2017-07-27T02:21:18.878Z,18.53
2017-07-27T02:23:47.170Z,18.73
2017-07-27T02:26:15.466Z,20.07
2017-07-27T02:28:43.804Z,19.10
2017-07-27T02:31:12.082Z,21.80
2017-07-27T02:33:40.402Z,21.30
2017-07-27T02:36:08.690Z,19.37
2017-07-27T02:38:37.004Z,21.27
2017-07-27T02:41:06.074Z,19.60
2017-07-27T02:43:34.510Z,21.00
2017-07-27T02:46:02.834Z,20.30
2017-07-27T02:48:31.153Z,21.33
2017-07-27T02:51:00.257Z,18.77
2017-07-27T02:53:28.529Z,18.70
2017-07-27T02:55:57.614Z,17.93
2017-07-27T02:58:25.899Z,21.37
2017-07-27T03:00:54.222Z,20.83
2017-07-27T03:03:22.542Z,21.03
2017-07-27T03:05:51.002Z,18.97
2017-07-27T03:08:19.306Z,17.63
2017-07-27T03:10:47.655Z,18.50
2017-07-27T03:13:16.042Z,19.60
2017-07-27T03:15:44.515Z,15.17
2017-07-27T03:18:13.631Z,14.43
2017-07-27T03:20:42.695Z,14.83
2017-07-27T03:23:11.026Z,18.17
2017-07-27T03:25:39.331Z,15.07
2017-07-27T03:28:07.638Z,17.00
2017-07-27T03:30:35.941Z,16.90
2017-07-27T03:33:05.019Z,16.50
2017-07-27T03:35:33.331Z,14.93
2017-07-27T03:38:01.659Z,16.47
2017-07-27T03:40:36.499Z,16.50
2017-07-27T03:43:05.080Z,16.20
2017-07-27T03:45:34.155Z,17.60
2017-07-27T03:48:03.247Z,17.07
2017-07-27T03:50:31.578Z,17.20
2017-07-27T03:52:59.945Z,15.50
2017-07-27T03:55:28.289Z,16.83
2017-07-27T03:57:57.389Z,15.13
2017-07-27T04:00:26.487Z,15.73
2017-07-27T04:02:55.368Z,15.10
2017-07-27T04:05:23.718Z,15.57
2017-07-27T04:07:52.046Z,17.37
2017-07-27T04:10:20.726Z,17.13
2017-07-27T04:12:49.837Z,16.77
2017-07-27T04:15:18.914Z,17.43
2017-07-27T04:17:47.390Z,16.47
2017-07-27T04:20:16.475Z,16.07
2017-07-27T04:22:44.871Z,16.23
2017-07-27T04:25:13.978Z,16.07
2017-07-27T04:27:43.068Z,18.40
2017-07-27T04:30:11.368Z,17.63
2017-07-27T04:32:39.686Z,18.53
2017-07-27T04:35:07.966Z,19.07
2017-07-27T04:37:37.230Z,18.20
2017-07-27T04:40:05.518Z,16.93
2017-07-27T04:42:33.820Z,17.27
2017-07-27T04:45:02.143Z,17.23
2017-07-27T04:47:30.471Z,16.70
2017-07-27T04:49:58.779Z,18.90
2017-07-27T04:52:27.095Z,19.60
2017-07-27T04:54:55.415Z,23.40
2017-07-27T04:57:36.306Z,18.50
2017-07-27T05:00:04.647Z,21.13
2017-07-27T05:02:33.743Z,19.37
2017-07-27T05:05:02.851Z,18.70
2017-07-27T05:07:31.201Z,18.80
2017-07-27T05:09:59.528Z,17.67
2017-07-27T05:12:27.841Z,15.80
2017-07-27T05:14:56.173Z,16.43
2017-07-27T05:17:24.483Z,16.87
2017-07-27T05:19:53.018Z,18.90
2017-07-27T05:22:21.341Z,19.97
2017-07-27T05:24:49.659Z,17.97
2017-07-27T05:27:18.767Z,17.70
2017-07-27T05:29:47.841Z,14.63
2017-07-27T05:32:16.177Z,14.90
2017-07-27T05:34:44.476Z,17.43
2017-07-27T05:37:12.810Z,16.80
2017-07-27T05:39:41.127Z,17.17
2017-07-27T05:42:09.451Z,17.53
2017-07-27T05:44:38.522Z,17.83
2017-07-27T05:47:06.822Z,19.20
2017-07-27T05:49:35.931Z,18.93
2017-07-27T05:52:04.603Z,18.10
2017-07-27T05:54:32.918Z,17.80
2017-07-27T05:57:01.221Z,18.03
2017-07-27T05:59:29.556Z,18.07
2017-07-27T06:01:57.912Z,18.70
2017-07-27T06:04:27.006Z,20.90
2017-07-27T06:06:56.078Z,18.80
2017-07-27T06:09:24.563Z,17.73
2017-07-27T06:11:52.863Z,20.00
2017-07-27T06:14:21.197Z,20.03
2017-07-27T06:16:49.526Z,16.63
2017-07-27T06:19:18.588Z,17.40
2017-07-27T06:21:46.898Z,15.90
2017-07-27T06:24:15.190Z,18.03
2017-07-27T06:26:43.542Z,15.07
2017-07-27T06:29:11.838Z,14.60
2017-07-27T06:31:40.223Z,14.37
2017-07-27T06:34:08.522Z,13.97
2017-07-27T06:36:37.026Z,18.50
2017-07-27T06:39:06.111Z,18.67
2017-07-27T06:41:34.431Z,18.20
2017-07-27T06:44:03.513Z,17.77
2017-07-27T06:46:31.842Z,18.00
2017-07-27T06:49:00.356Z,16.43
2017-07-27T06:51:28.695Z,18.17
2017-07-27T06:53:57.125Z,15.93
2017-07-27T06:56:26.188Z,19.17
2017-07-27T06:58:55.426Z,18.73
2017-07-27T07:01:23.762Z,21.40
2017-07-27T07:03:52.050Z,15.63
2017-07-27T07:06:21.162Z,17.77
2017-07-27T07:08:50.223Z,15.87
2017-07-27T07:11:18.540Z,14.27
2017-07-27T07:13:46.921Z,14.73
2017-07-27T07:16:15.234Z,15.03
2017-07-27T07:18:43.553Z,16.57
2017-07-27T07:21:12.761Z,16.63
2017-07-27T07:23:41.840Z,15.17
2017-07-27T07:26:10.237Z,16.87
2017-07-27T07:28:38.562Z,15.97
2017-07-27T07:31:06.866Z,15.00
2017-07-27T07:33:35.983Z,14.70
2017-07-27T07:36:04.316Z,14.70
2017-07-27T07:38:32.686Z,15.30
2017-07-27T07:41:01.083Z,14.27
2017-07-27T07:43:30.310Z,13.67
2017-07-27T07:45:58.604Z,16.10
2017-07-27T07:48:26.924Z,13.60
2017-07-27T07:50:55.297Z,13.63
2017-07-27T07:53:23.612Z,13.97
2017-07-27T07:55:52.707Z,13.83
2017-07-27T07:58:21.779Z,12.33
2017-07-27T08:00:50.119Z,12.83
2017-07-27T08:03:18.422Z,12.27
2017-07-27T08:05:47.150Z,12.70
2017-07-27T08:08:15.522Z,13.20
2017-07-27T08:10:44.594Z,16.93
2017-07-27T08:13:12.918Z,11.47
2017-07-27T08:15:41.226Z,11.63
2017-07-27T08:18:09.588Z,12.30
2017-07-27T08:20:37.895Z,13.37
2017-07-27T08:23:06.319Z,11.83
2017-07-27T08:25:34.634Z,12.83
2017-07-27T08:28:02.942Z,14.10
2017-07-27T08:30:31.297Z,13.57
2017-07-27T08:33:01.460Z,15.30
2017-07-27T08:35:30.554Z,14.13
2017-07-27T08:38:00.527Z,13.90
2017-07-27T08:40:28.844Z,15.80
2017-07-27T08:42:57.131Z,15.57
2017-07-27T08:45:26.418Z,16.10
2017-07-27T08:47:55.496Z,12.93
2017-07-27T08:50:23.796Z,14.87
2017-07-27T08:52:52.134Z,15.67
2017-07-27T08:55:20.428Z,14.00
2017-07-27T08:57:48.779Z,13.87
2017-07-27T09:00:17.099Z,14.37
2017-07-27T09:02:45.552Z,14.93
2017-07-27T09:05:13.869Z,14.70
2017-07-27T09:07:42.199Z,13.67
2017-07-27T09:10:10.527Z,16.27
2017-07-27T09:12:38.839Z,17.07
2017-07-27T09:15:07.189Z,11.87
2017-07-27T09:17:35.503Z,12.93
2017-07-27T09:20:03.835Z,13.20
2017-07-27T09:22:32.143Z,13.70
2017-07-27T09:25:00.494Z,11.93
2017-07-27T09:27:28.795Z,13.00
2017-07-27T09:29:57.112Z,13.43
2017-07-27T09:32:25.403Z,11.50
2017-07-27T09:34:54.599Z,11.70
2017-07-27T09:37:23.654Z,10.67
2017-07-27T09:39:51.964Z,14.30
2017-07-27T09:42:20.409Z,13.60
2017-07-27T09:44:49.506Z,15.10
2017-07-27T09:47:17.883Z,15.37
2017-07-27T09:49:46.169Z,16.70
2017-07-27T09:52:14.875Z,17.47
2017-07-27T09:54:43.956Z,15.67
2017-07-27T09:57:17.994Z,17.40
2017-07-27T09:59:46.290Z,13.10
2017-07-27T10:02:14.600Z,14.27
2017-07-27T10:04:42.915Z,18.00
2017-07-27T10:07:12.000Z,14.13
2017-07-27T10:09:40.346Z,14.27
2017-07-27T10:12:08.652Z,13.57
2017-07-27T10:14:37.070Z,14.00
2017-07-27T10:17:05.377Z,15.00
2017-07-27T10:19:33.680Z,13.10
2017-07-27T10:22:02.782Z,14.73
2017-07-27T10:24:31.862Z,12.47
2017-07-27T10:27:00.198Z,13.50
2017-07-27T10:29:28.522Z,15.00
2017-07-27T10:31:57.614Z,12.67
2017-07-27T10:34:26.708Z,14.83
2017-07-27T10:36:55.053Z,20.50
2017-07-27T10:39:23.551Z,16.90
2017-07-27T10:41:52.000Z,16.80
2017-07-27T10:44:20.322Z,12.87
2017-07-27T10:46:49.402Z,12.13
2017-07-27T10:49:17.820Z,13.80
2017-07-27T10:51:46.095Z,14.60
2017-07-27T10:54:14.424Z,15.40
2017-07-27T10:56:43.545Z,15.97
2017-07-27T10:59:11.910Z,12.77
2017-07-27T11:01:40.221Z,12.77
2017-07-27T11:04:09.419Z,15.40
2017-07-27T11:06:38.473Z,14.87
2017-07-27T11:09:06.997Z,14.37
2017-07-27T11:11:35.307Z,19.00
2017-07-27T11:14:03.636Z,17.43
2017-07-27T11:16:32.743Z,17.20
2017-07-27T11:19:01.075Z,15.60
2017-07-27T11:21:29.386Z,14.13
2017-07-27T11:23:58.453Z,12.73
2017-07-27T11:26:26.782Z,15.57
2017-07-27T11:28:55.115Z,14.87
2017-07-27T11:31:23.433Z,11.43
2017-07-27T11:33:51.770Z,16.90
2017-07-27T11:36:20.175Z,14.80
2017-07-27T11:38:49.274Z,12.57
2017-07-27T11:41:17.639Z,13.83
2017-07-27T11:43:45.958Z,14.53
2017-07-27T11:46:14.248Z,13.93
2017-07-27T11:48:42.749Z,14.90
2017-07-27T11:51:11.062Z,13.60
2017-07-27T11:53:39.378Z,13.17
2017-07-27T11:56:07.727Z,13.03
2017-07-27T11:58:36.026Z,14.03
2017-07-27T12:01:04.374Z,11.90
2017-07-27T12:03:32.962Z,17.33
2017-07-27T12:06:01.322Z,15.17
2017-07-27T12:08:30.387Z,14.33
2017-07-27T12:10:58.810Z,15.63
2017-07-27T12:13:27.101Z,15.20
2017-07-27T12:15:55.395Z,13.60
2017-07-27T12:18:23.909Z,13.20
2017-07-27T12:20:52.223Z,15.00
2017-07-27T12:23:20.542Z,11.87
2017-07-27T12:25:49.045Z,13.83
2017-07-27T12:28:17.748Z,17.63
2017-07-27T12:30:46.039Z,16.00
2017-07-27T12:33:14.345Z,22.63
2017-07-27T12:35:42.678Z,15.50
2017-07-27T12:38:10.991Z,14.83
2017-07-27T12:40:39.337Z,15.07
2017-07-27T12:43:07.759Z,21.33
2017-07-27T12:45:36.079Z,24.50
2017-07-27T12:48:04.760Z,17.97
2017-07-27T12:50:33.854Z,17.30
2017-07-27T12:53:02.183Z,15.73
2017-07-27T12:55:30.664Z,16.47
2017-07-27T12:57:59.006Z,22.37
2017-07-27T13:00:27.327Z,16.63
2017-07-27T13:02:55.712Z,18.07
2017-07-27T13:05:24.042Z,20.47
2017-07-27T13:07:52.389Z,16.37
2017-07-27T13:10:21.458Z,17.23
2017-07-27T13:12:49.814Z,19.47
2017-07-27T13:15:18.144Z,28.83
2017-07-27T13:17:46.455Z,20.07
2017-07-27T13:20:14.775Z,20.70
2017-07-27T13:22:43.227Z,19.50
2017-07-27T13:25:11.535Z,22.53
2017-07-27T13:27:39.870Z,22.40
2017-07-27T13:30:08.204Z,25.07
2017-07-27T13:32:36.510Z,26.53
2017-07-27T13:35:04.889Z,23.10
2017-07-27T13:37:33.258Z,20.40
2017-07-27T13:40:01.563Z,18.47
2017-07-27T13:42:29.879Z,22.93
2017-07-27T13:44:58.350Z,21.63
2017-07-27T13:47:27.451Z,28.30
2017-07-27T13:49:55.798Z,19.17
2017-07-27T13:52:24.240Z,20.27
2017-07-27T13:54:52.551Z,18.43
2017-07-27T13:57:21.020Z,20.17
2017-07-27T13:59:49.343Z,17.63
2017-07-27T14:02:17.691Z,22.20
2017-07-27T14:04:46.032Z,18.30
2017-07-27T14:07:14.383Z,22.50
2017-07-27T14:09:44.477Z,22.10
2017-07-27T14:12:13.298Z,26.90
2017-07-27T14:14:42.398Z,23.10
2017-07-27T14:17:10.719Z,22.40
2017-07-27T14:19:39.050Z,26.27
2017-07-27T14:22:07.357Z,24.10
2017-07-27T14:24:35.696Z,29.30
2017-07-27T14:27:04.775Z,23.40
2017-07-27T14:29:33.114Z,20.70
2017-07-27T14:32:01.448Z,21.00
2017-07-27T14:34:29.786Z,23.93
2017-07-27T14:36:58.096Z,21.37
2017-07-27T14:39:27.208Z,20.80
2017-07-27T14:41:55.533Z,24.87
2017-07-27T14:44:23.849Z,27.80
2017-07-27T14:46:52.204Z,28.27
2017-07-27T14:49:21.285Z,12.67
2017-07-27T14:51:49.626Z,13.47
2017-07-27T14:54:17.945Z,15.20
2017-07-27T14:56:46.587Z,15.60
2017-07-27T14:59:14.927Z,13.77
2017-07-27T15:01:44.031Z,15.27
2017-07-27T15:04:12.385Z,20.77
2017-07-27T15:06:40.699Z,17.80
2017-07-27T15:09:09.027Z,14.07
2017-07-27T15:11:37.431Z,16.30
2017-07-27T15:14:05.756Z,18.37
2017-07-27T15:16:34.078Z,17.33
2017-07-27T15:19:02.453Z,16.40
2017-07-27T15:21:31.562Z,21.73
2017-07-27T15:23:59.965Z,17.57
2017-07-27T15:26:28.263Z,13.43
2017-07-27T15:28:56.571Z,18.90
2017-07-27T15:31:25.680Z,13.77
2017-07-27T15:33:54.310Z,16.73
2017-07-27T15:36:22.615Z,15.17
2017-07-27T15:38:50.943Z,19.63
2017-07-27T15:41:20.028Z,15.90
2017-07-27T15:43:48.400Z,15.40
2017-07-27T15:46:16.709Z,14.33
2017-07-27T15:48:45.034Z,17.60
2017-07-27T15:51:13.362Z,18.83
2017-07-27T15:53:41.687Z,14.63
2017-07-27T15:56:10.191Z,13.63
2017-07-27T15:58:38.539Z,12.73
2017-07-27T16:01:06.827Z,12.90
2017-07-27T16:03:35.171Z,12.23
2017-07-27T16:06:03.479Z,12.00
2017-07-27T16:08:31.815Z,10.83
2017-07-27T16:11:00.165Z,12.67
2017-07-27T16:13:29.249Z,14.53
2017-07-27T16:15:57.533Z,12.80
2017-07-27T16:18:25.849Z,12.53
2017-07-27T16:20:54.159Z,13.47
2017-07-27T16:23:23.394Z,11.30
2017-07-27T16:25:51.764Z,12.90
2017-07-27T16:28:20.124Z,13.43
2017-07-27T16:30:49.428Z,12.87
2017-07-27T16:33:17.757Z,14.83
2017-07-27T16:35:46.086Z,13.87
2017-07-27T16:38:14.388Z,17.03
2017-07-27T16:40:42.732Z,14.67
2017-07-27T16:43:11.828Z,16.87
2017-07-27T16:45:40.287Z,16.20
2017-07-27T16:48:08.615Z,17.17
2017-07-27T16:50:36.926Z,15.67
2017-07-27T16:53:05.310Z,16.07
2017-07-27T16:55:33.616Z,15.97
2017-07-27T16:58:01.965Z,38.33
2017-07-27T17:00:30.302Z,17.13
2017-07-27T17:02:58.627Z,18.50
2017-07-27T17:05:26.951Z,18.70
2017-07-27T17:07:55.276Z,17.27
2017-07-27T17:10:23.587Z,16.83
2017-07-27T17:12:52.119Z,18.97
2017-07-27T17:15:20.444Z,18.37
2017-07-27T17:17:48.761Z,19.57
2017-07-27T17:20:17.102Z,19.53
2017-07-27T17:22:45.417Z,21.73
2017-07-27T17:25:13.862Z,14.60
2017-07-27T17:27:42.210Z,14.10
2017-07-27T17:30:10.523Z,17.10
2017-07-27T17:32:38.854Z,13.10
2017-07-27T17:35:07.271Z,14.70
2017-07-27T17:37:35.633Z,17.30
2017-07-27T17:40:03.936Z,17.30
2017-07-27T17:42:32.273Z,17.07
2017-07-27T17:45:01.458Z,15.20
2017-07-27T17:47:29.787Z,15.20
2017-07-27T17:49:58.210Z,15.00
2017-07-27T17:52:26.660Z,17.73
2017-07-27T17:54:54.971Z,19.93
2017-07-27T17:57:23.298Z,19.63
2017-07-27T17:59:51.648Z,18.90
2017-07-27T18:02:19.955Z,17.83
2017-07-27T18:04:48.313Z,17.73
2017-07-27T18:07:16.630Z,18.97
2017-07-27T18:09:44.967Z,17.30
2017-07-27T18:12:13.284Z,17.33
2017-07-27T18:14:41.620Z,17.90
2017-07-27T18:17:09.927Z,18.50
2017-07-27T18:19:38.242Z,16.50
2017-07-27T18:22:06.568Z,17.50
2017-07-27T18:24:34.911Z,15.93
2017-07-27T18:27:04.015Z,20.10
2017-07-27T18:29:32.339Z,18.60
2017-07-27T18:32:00.664Z,17.33
2017-07-27T18:34:29.764Z,15.77
2017-07-27T18:36:58.151Z,16.63
2017-07-27T18:39:26.556Z,23.37
2017-07-27T18:41:55.018Z,17.83
2017-07-27T18:44:23.317Z,17.90
2017-07-27T18:46:51.731Z,16.20
2017-07-27T18:49:20.272Z,14.00
2017-07-27T18:51:48.733Z,15.40
2017-07-27T18:54:17.786Z,16.03
2017-07-27T18:56:46.508Z,16.80
2017-07-27T18:59:14.826Z,17.43
2017-07-27T19:01:43.950Z,16.33
2017-07-27T19:04:13.053Z,14.97
2017-07-27T19:06:42.151Z,14.20
2017-07-27T19:09:10.501Z,17.70
2017-07-27T19:11:38.814Z,16.07
2017-07-27T19:14:07.496Z,16.30
2017-07-27T19:16:35.803Z,14.97
2017-07-27T19:19:04.134Z,14.87
2017-07-27T19:21:33.243Z,16.57
2017-07-27T19:24:01.565Z,14.30
2017-07-27T19:26:29.929Z,15.20
2017-07-27T19:28:58.240Z,14.90
2017-07-27T19:31:26.548Z,14.77
2017-07-27T19:33:54.866Z,17.20
2017-07-27T19:36:23.211Z,18.20
2017-07-27T19:38:51.539Z,15.70
2017-07-27T19:41:19.842Z,13.00
2017-07-27T19:43:48.951Z,14.07
2017-07-27T19:46:17.244Z,13.80
2017-07-27T19:48:45.615Z,14.00
2017-07-27T19:51:13.948Z,14.43
2017-07-27T19:53:42.299Z,15.20
2017-07-27T19:56:10.656Z,13.17
2017-07-27T19:58:38.998Z,13.67
2017-07-27T20:01:08.116Z,13.70
2017-07-27T20:03:36.544Z,14.30
2017-07-27T20:06:04.879Z,14.67
2017-07-27T20:08:33.216Z,14.73
2017-07-27T20:11:01.551Z,14.90
2017-07-27T20:13:29.876Z,14.43
2017-07-27T20:15:58.209Z,15.20
2017-07-27T20:18:26.546Z,13.80
2017-07-27T20:20:54.878Z,15.10
2017-07-27T20:23:23.222Z,14.60
2017-07-27T20:25:51.536Z,13.50
2017-07-27T20:28:20.922Z,15.37
2017-07-27T20:30:49.222Z,11.50
2017-07-27T20:33:17.652Z,13.80
2017-07-27T20:35:45.964Z,14.90
2017-07-27T20:38:14.307Z,15.80
2017-07-27T20:40:42.621Z,15.57
2017-07-27T20:43:10.970Z,18.53
2017-07-27T20:45:39.650Z,18.33
2017-07-27T20:48:08.102Z,15.27
2017-07-27T20:50:36.491Z,19.63
2017-07-27T20:53:05.058Z,17.30
2017-07-27T20:55:33.405Z,17.90
2017-07-27T20:58:02.510Z,17.20
2017-07-27T21:00:30.847Z,20.20
2017-07-27T21:02:59.161Z,17.23
2017-07-27T21:05:27.502Z,16.10
2017-07-27T21:07:55.836Z,13.87
2017-07-27T21:10:25.174Z,16.13
2017-07-27T21:12:53.479Z,19.40
2017-07-27T21:15:21.788Z,18.00
2017-07-27T21:17:50.136Z,17.13
2017-07-27T21:20:18.449Z,17.63
2017-07-27T21:22:47.558Z,18.50
2017-07-27T21:25:15.849Z,15.73
2017-07-27T21:27:44.202Z,13.63
2017-07-27T21:30:13.295Z,15.60
2017-07-27T21:32:41.794Z,13.97
2017-07-27T21:35:10.110Z,16.40
2017-07-27T21:37:38.627Z,18.30
2017-07-27T21:40:07.727Z,17.40
2017-07-27T21:42:36.027Z,16.70
2017-07-27T21:45:04.361Z,17.00
2017-07-27T21:47:32.683Z,19.37
2017-07-27T21:50:01.055Z,19.03
2017-07-27T21:52:30.233Z,18.83
2017-07-27T21:54:59.424Z,20.20
2017-07-27T21:57:28.503Z,19.20
2017-07-27T21:59:56.818Z,20.53
2017-07-27T22:02:25.159Z,20.13
2017-07-27T22:04:54.105Z,20.07
2017-07-27T22:07:22.746Z,20.43
2017-07-27T22:09:51.085Z,18.83
2017-07-27T22:12:19.450Z,19.60
2017-07-27T22:14:47.765Z,19.40
2017-07-27T22:17:16.243Z,20.30
2017-07-27T22:19:44.559Z,18.27
2017-07-27T22:22:12.889Z,19.20
2017-07-27T22:24:41.244Z,29.63
2017-07-27T22:27:09.545Z,18.13
2017-07-27T22:29:37.879Z,23.53
2017-07-27T22:32:06.360Z,16.90
2017-07-27T22:34:35.631Z,21.43
2017-07-27T22:37:05.833Z,19.80
2017-07-27T22:39:34.248Z,27.10
2017-07-27T22:42:02.683Z,20.97
2017-07-27T22:44:31.416Z,20.53
2017-07-27T22:46:59.716Z,21.63
2017-07-27T22:49:28.063Z,19.33
2017-07-27T22:51:56.365Z,20.80
2017-07-27T22:54:24.679Z,24.27
2017-07-27T22:56:53.019Z,20.97
2017-07-27T22:59:21.333Z,22.00
2017-07-27T23:01:49.652Z,20.70
2017-07-27T23:04:17.971Z,18.40
2017-07-27T23:06:46.310Z,19.57
2017-07-27T23:09:14.614Z,18.57
2017-07-27T23:11:43.159Z,16.60
2017-07-27T23:14:12.218Z,17.37
2017-07-27T23:16:40.535Z,17.20
2017-07-27T23:19:08.875Z,20.43
2017-07-27T23:21:37.168Z,18.73
2017-07-27T23:24:06.251Z,18.53
2017-07-27T23:26:35.330Z,21.10
2017-07-27T23:29:03.672Z,19.20
2017-07-27T23:31:31.985Z,19.93
2017-07-27T23:34:00.312Z,17.90
2017-07-27T23:36:28.664Z,18.00
2017-07-27T23:38:57.079Z,17.60
2017-07-27T23:41:25.404Z,16.40
2017-07-27T23:43:53.709Z,15.73
2017-07-27T23:46:22.083Z,19.77
2017-07-27T23:48:51.150Z,19.43
2017-07-27T23:51:20.259Z,19.53
2017-07-27T23:53:49.339Z,21.20
2017-07-27T23:56:17.679Z,22.17
2017-07-27T23:58:45.988Z,20.20
